Time;durP1;ratioP1;P1;durP2;ratioP2;P2;SDS_P1;SDS_P2;PMS_P1;PMS_P2;Temp;Humidity;BMP_temperature;BMP_pressure;BME280_temperature;BME280_humidity;BME280_pressure;Samples;Min_cycle;Max_cycle;Signal;HPM_P1;HPM_P2
2023/01/13 00:02:26;;;;;;;1.10;1.00;;;9.20;99.90;;;;;;5012734;28;20593;-67
2023/01/13 00:04:53;;;;;;;2.17;1.40;;;9.30;99.90;;;;;;5012383;28;20457;-67
2023/01/13 00:07:19;;;;;;;1.63;1.20;;;9.30;99.90;;;;;;5012276;28;20513;-67
2023/01/13 00:09:47;;;;;;;1.53;1.40;;;9.30;99.90;;;;;;5015229;28;21013;-67
2023/01/13 00:12:14;;;;;;;1.27;1.17;;;9.30;99.90;;;;;;5012495;28;20516;-67
2023/01/13 00:14:41;;;;;;;1.30;1.20;;;9.30;99.90;;;;;;5019454;28;20532;-67
2023/01/13 00:17:07;;;;;;;1.30;1.20;;;9.30;99.90;;;;;;5012279;28;20458;-67
2023/01/13 00:19:34;;;;;;;1.13;1.03;;;9.30;99.90;;;;;;5015531;28;20474;-67
2023/01/13 00:22:00;;;;;;;12.43;1.77;;;9.30;99.90;;;;;;5011899;28;20990;-67
2023/01/13 00:24:27;;;;;;;1.30;1.20;;;9.30;99.90;;;;;;5018359;28;20447;-68
2023/01/13 00:26:55;;;;;;;1.27;1.17;;;9.40;99.90;;;;;;5015131;28;20450;-67
2023/01/13 00:29:22;;;;;;;1.37;0.97;;;9.40;99.90;;;;;;5021816;28;20490;-67
2023/01/13 00:31:49;;;;;;;1.20;1.10;;;9.40;99.90;;;;;;5014148;28;20602;-67
2023/01/13 00:34:16;;;;;;;1.20;1.10;;;9.40;99.90;;;;;;5019270;28;20483;-67
2023/01/13 00:36:42;;;;;;;2.37;1.40;;;9.40;99.90;;;;;;5011891;28;20566;-68
2023/01/13 00:39:09;;;;;;;2.10;1.20;;;9.40;99.90;;;;;;5022950;28;20459;-67
2023/01/13 00:44:17;;;;;;;1.70;1.60;;;9.40;99.90;;;;;;5015446;28;20513;-68
2023/01/13 00:46:44;;;;;;;2.30;1.30;;;9.40;99.90;;;;;;5023295;28;20507;-68
2023/01/13 00:49:11;;;;;;;1.00;0.90;;;9.40;99.90;;;;;;5014141;28;20463;-68
2023/01/13 00:51:37;;;;;;;1.40;1.10;;;9.40;99.90;;;;;;5011461;28;20474;-68
2023/01/13 00:54:04;;;;;;;1.13;1.03;;;9.50;99.90;;;;;;5018166;28;20490;-68
2023/01/13 00:56:31;;;;;;;1.20;1.10;;;9.50;99.90;;;;;;5021288;28;20963;-68
2023/01/13 00:58:57;;;;;;;1.33;1.23;;;9.50;99.90;;;;;;5015267;28;20521;-68
2023/01/13 01:01:25;;;;;;;1.30;1.20;;;9.50;99.90;;;;;;5011615;28;20528;-68
2023/01/13 01:03:54;;;;;;;1.47;1.10;;;9.60;99.90;;;;;;5019330;28;20520;-68
2023/01/13 01:06:22;;;;;;;1.60;1.50;;;9.60;99.90;;;;;;5011265;28;20482;-67
2023/01/13 01:08:49;;;;;;;1.20;1.10;;;9.60;99.90;;;;;;5011493;28;20443;-68
2023/01/13 01:11:17;;;;;;;1.30;1.20;;;9.70;99.90;;;;;;5018944;28;20470;-68
2023/01/13 01:13:44;;;;;;;2.80;1.20;;;9.60;99.90;;;;;;5011789;28;20459;-68
2023/01/13 01:16:13;;;;;;;1.23;1.13;;;9.60;99.90;;;;;;5011150;28;20505;-68
2023/01/13 01:18:45;;;;;;;2.33;1.30;;;9.60;99.90;;;;;;5018098;28;20469;-67
2023/01/13 01:21:12;;;;;;;1.23;1.10;;;9.60;99.90;;;;;;5016733;28;21001;-67
2023/01/13 01:23:39;;;;;;;1.27;1.00;;;9.60;99.90;;;;;;5031061;28;20457;-68
2023/01/13 01:26:08;;;;;;;1.37;1.20;;;9.60;99.90;;;;;;5024334;28;20517;-68
2023/01/13 01:28:35;;;;;;;2.67;1.20;;;9.60;99.90;;;;;;5016837;28;20528;-68
2023/01/13 01:31:06;;;;;;;1.77;1.20;;;9.60;99.90;;;;;;5024104;28;20474;-68
2023/01/13 01:33:32;;;;;;;1.40;1.13;;;9.60;99.90;;;;;;5020785;28;20508;-68
2023/01/13 01:36:02;;;;;;;1.33;1.23;;;9.50;99.90;;;;;;5020787;28;20490;-68
2023/01/13 01:38:29;;;;;;;1.50;1.20;;;9.50;99.90;;;;;;5020632;28;20456;-67
2023/01/13 01:40:55;;;;;;;1.60;1.30;;;9.50;99.90;;;;;;5020638;28;20478;-68
2023/01/13 01:46:08;;;;;;;1.87;1.20;;;9.50;99.90;;;;;;5016941;28;20499;-68
2023/01/13 01:48:37;;;;;;;1.27;1.10;;;9.50;99.90;;;;;;5021010;28;20453;-68
2023/01/13 01:51:11;;;;;;;1.57;1.40;;;9.60;99.90;;;;;;5016832;28;20477;-68
2023/01/13 01:53:40;;;;;;;1.87;1.17;;;9.60;99.90;;;;;;5014838;28;20874;-68
2023/01/13 01:56:08;;;;;;;1.53;1.43;;;9.60;99.90;;;;;;5022295;28;20499;-68
2023/01/13 01:58:41;;;;;;;1.27;1.17;;;9.60;99.90;;;;;;5016826;28;20508;-68
2023/01/13 02:01:08;;;;;;;1.57;1.20;;;9.60;99.90;;;;;;5016218;28;22160;-68
2023/01/13 02:03:37;;;;;;;1.40;1.20;;;9.60;99.90;;;;;;5014504;28;20978;-68
2023/01/13 02:06:04;;;;;;;2.90;1.50;;;9.60;99.90;;;;;;5014381;28;20450;-68
2023/01/13 02:08:32;;;;;;;1.30;1.20;;;9.60;99.90;;;;;;5022096;28;20462;-68
2023/01/13 02:10:59;;;;;;;3.67;1.30;;;9.60;99.90;;;;;;5014857;28;20525;-68
2023/01/13 02:13:24;;;;;;;2.70;1.20;;;9.60;99.90;;;;;;5021402;28;20454;-68
2023/01/13 02:15:58;;;;;;;1.30;1.20;;;9.60;99.90;;;;;;5014223;28;21032;-67
2023/01/13 02:18:40;;;;;;;1.23;1.13;;;9.60;99.90;;;;;;5014376;28;20262;-68
2023/01/13 02:21:34;;;;;;;1.73;1.20;;;9.60;99.90;;;;;;5015496;28;20548;-68
2023/01/13 02:27:40;;;;;;;1.20;1.10;;;9.60;99.90;;;;;;5014089;28;20446;-68
2023/01/13 02:33:13;;;;;;;1.30;1.20;;;9.60;99.90;;;;;;5028121;28;20848;-68
2023/01/13 02:35:47;;;;;;;1.10;1.00;;;9.60;99.90;;;;;;5017293;28;20493;-69
2023/01/13 02:38:19;;;;;;;1.20;1.10;;;9.60;99.90;;;;;;5016393;28;20505;-68
2023/01/13 02:40:54;;;;;;;4.13;1.20;;;9.60;99.90;;;;;;5026687;28;20474;-68
2023/01/13 02:46:20;;;;;;;1.17;1.07;;;9.60;99.90;;;;;;5021489;28;20493;-68
2023/01/13 02:48:51;;;;;;;1.30;1.10;;;9.60;99.90;;;;;;5014009;28;20516;-68
2023/01/13 02:51:22;;;;;;;1.27;1.10;;;9.60;99.90;;;;;;5016882;28;20473;-68
2023/01/13 02:53:54;;;;;;;1.10;1.00;;;9.60;99.90;;;;;;5017637;28;20443;-67
2023/01/13 02:56:22;;;;;;;1.10;1.00;;;9.60;99.90;;;;;;5013789;28;20486;-68
2023/01/13 02:58:50;;;;;;;1.77;1.10;;;9.60;99.90;;;;;;5016566;28;20462;-68
2023/01/13 03:01:18;;;;;;;1.30;1.10;;;9.60;99.90;;;;;;5017010;28;20492;-68
2023/01/13 03:03:45;;;;;;;1.10;1.00;;;9.60;99.90;;;;;;5018138;28;20467;-68
2023/01/13 03:06:28;;;;;;;3.00;1.20;;;9.50;99.90;;;;;;5014129;28;20544;-68
2023/01/13 03:09:03;;;;;;;4.60;1.20;;;9.50;99.90;;;;;;5013485;28;20517;-68
2023/01/13 03:11:34;;;;;;;2.50;1.30;;;9.40;99.90;;;;;;5016698;28;20477;-68
2023/01/13 03:14:09;;;;;;;2.40;1.10;;;9.30;99.90;;;;;;5023357;28;20458;-68
2023/01/13 03:16:48;;;;;;;1.10;1.00;;;9.30;99.90;;;;;;5012999;28;20544;-68
2023/01/13 03:19:26;;;;;;;1.20;1.10;;;9.30;99.90;;;;;;5013144;28;20454;-68
2023/01/13 03:21:57;;;;;;;1.83;1.20;;;9.30;99.90;;;;;;5021683;28;20478;-68
2023/01/13 03:24:33;;;;;;;1.10;1.00;;;9.30;99.90;;;;;;5018199;28;20459;-68
2023/01/13 03:27:05;;;;;;;1.10;1.00;;;9.20;99.90;;;;;;5012884;28;20446;-68
2023/01/13 03:29:36;;;;;;;1.27;1.17;;;9.20;99.90;;;;;;5022307;28;20457;-67
2023/01/13 03:32:10;;;;;;;1.10;1.00;;;9.20;99.90;;;;;;5020391;28;20486;-68
2023/01/13 03:34:43;;;;;;;1.07;0.97;;;9.20;99.90;;;;;;5021484;28;20447;-68
2023/01/13 03:37:11;;;;;;;2.03;1.00;;;9.20;99.90;;;;;;5014254;28;20513;-68
2023/01/13 03:39:43;;;;;;;1.20;1.10;;;9.20;99.90;;;;;;5012737;28;20455;-69
2023/01/13 03:42:13;;;;;;;1.80;1.17;;;9.20;99.90;;;;;;5016707;28;20875;-69
2023/01/13 03:44:46;;;;;;;1.17;1.07;;;9.20;99.90;;;;;;5012172;28;20451;-68
2023/01/13 03:47:21;;;;;;;2.70;1.20;;;9.20;99.90;;;;;;5020621;28;20977;-68
2023/01/13 03:49:55;;;;;;;1.40;1.30;;;9.20;99.90;;;;;;5021152;28;20485;-68
2023/01/13 03:52:25;;;;;;;2.30;1.20;;;9.10;99.90;;;;;;5016909;28;20528;-68
2023/01/13 03:54:57;;;;;;;3.10;1.60;;;9.10;99.90;;;;;;5012670;28;20483;-68
2023/01/13 03:57:29;;;;;;;1.30;1.20;;;9.00;99.90;;;;;;5012521;28;20947;-68
2023/01/13 04:00:00;;;;;;;1.93;1.30;;;8.90;99.90;;;;;;5016277;28;20458;-68
2023/01/13 04:02:38;;;;;;;2.53;1.80;;;9.00;99.90;;;;;;5017209;28;20462;-68
2023/01/13 04:05:08;;;;;;;1.40;1.30;;;8.90;99.90;;;;;;5012392;28;20447;-67
2023/01/13 04:07:44;;;;;;;1.20;1.10;;;8.90;99.90;;;;;;5012385;28;20590;-66
2023/01/13 04:10:13;;;;;;;1.20;1.10;;;8.90;99.90;;;;;;5012222;28;20521;-66
2023/01/13 04:13:01;;;;;;;1.30;1.20;;;8.90;99.90;;;;;;5016544;28;20860;-67
2023/01/13 04:15:30;;;;;;;1.30;1.20;;;8.90;99.90;;;;;;5014782;28;20497;-66
2023/01/13 04:18:09;;;;;;;1.93;1.00;;;8.90;99.90;;;;;;5023700;28;20505;-66
2023/01/13 04:20:36;;;;;;;1.00;0.90;;;8.90;99.90;;;;;;5013164;28;20477;-66
2023/01/13 04:23:02;;;;;;;1.20;1.03;;;9.00;99.90;;;;;;5019909;28;20532;-68
2023/01/13 04:25:29;;;;;;;1.10;1.00;;;9.00;99.90;;;;;;5015736;28;20451;-67
2023/01/13 04:27:55;;;;;;;2.60;1.20;;;9.00;99.90;;;;;;5015524;28;20874;-67
2023/01/13 04:30:22;;;;;;;1.47;1.30;;;9.00;99.90;;;;;;5018235;28;20482;-67
2023/01/13 04:32:49;;;;;;;1.10;1.00;;;9.00;99.90;;;;;;5013323;28;20470;-67
2023/01/13 04:35:17;;;;;;;1.13;1.03;;;9.00;99.90;;;;;;5014289;28;20535;-67
2023/01/13 04:37:43;;;;;;;1.20;1.10;;;9.00;99.90;;;;;;5012083;28;20451;-67
2023/01/13 04:40:11;;;;;;;1.77;1.20;;;9.00;99.90;;;;;;5011705;28;20986;-67
2023/01/13 04:42:37;;;;;;;1.20;1.10;;;9.00;99.90;;;;;;5011578;28;20863;-67
2023/01/13 04:45:05;;;;;;;1.73;1.10;;;8.90;99.90;;;;;;5018003;28;20447;-67
2023/01/13 04:47:31;;;;;;;1.30;1.20;;;8.90;99.90;;;;;;5011656;28;20505;-67
2023/01/13 04:49:58;;;;;;;1.73;1.00;;;8.90;99.90;;;;;;5011651;28;21009;-67
2023/01/13 04:52:26;;;;;;;1.13;1.03;;;8.80;99.90;;;;;;5012015;28;20487;-66
2023/01/13 04:54:52;;;;;;;2.93;1.33;;;8.70;99.90;;;;;;5014370;28;20450;-66
2023/01/13 04:57:19;;;;;;;2.60;0.90;;;8.70;99.90;;;;;;5014343;28;20908;-67
2023/01/13 04:59:46;;;;;;;1.10;1.00;;;8.60;99.90;;;;;;5016369;28;20877;-67
2023/01/13 05:02:18;;;;;;;1.53;1.07;;;8.60;99.90;;;;;;5012457;28;20454;-67
2023/01/13 05:04:45;;;;;;;1.63;1.00;;;8.60;99.90;;;;;;5014893;28;20520;-67
2023/01/13 05:07:11;;;;;;;1.50;1.30;;;8.50;99.90;;;;;;5015470;28;20504;-67
2023/01/13 05:09:39;;;;;;;1.60;1.00;;;8.50;99.90;;;;;;5011630;28;20450;-67
2023/01/13 05:17:35;;;;;;;1.10;0.90;;;8.20;99.90;;;;;;5011490;28;20430;-67
2023/01/13 05:20:02;;;;;;;1.10;1.00;;;8.10;99.90;;;;;;5019490;28;20517;-67
2023/01/13 05:25:21;;;;;;;3.90;1.50;;;8.00;99.90;;;;;;5014926;28;20550;-66
2023/01/13 05:27:48;;;;;;;1.77;1.13;;;7.90;99.90;;;;;;5011216;28;21017;-66
2023/01/13 05:30:15;;;;;;;3.30;1.00;;;7.80;99.90;;;;;;5016901;28;20475;-67
2023/01/13 05:32:42;;;;;;;2.30;1.30;;;7.70;99.90;;;;;;5013313;28;20447;-67
2023/01/13 05:35:09;;;;;;;1.20;1.10;;;7.60;99.90;;;;;;5014223;28;20450;-67
2023/01/13 05:37:35;;;;;;;2.17;1.53;;;7.60;99.90;;;;;;5010951;28;21005;-67
2023/01/13 05:45:32;;;;;;;1.30;1.10;;;7.50;99.90;;;;;;5024921;28;20465;-67
2023/01/13 05:47:59;;;;;;;2.60;1.50;;;7.50;99.90;;;;;;5011608;28;20465;-67
2023/01/13 05:50:26;;;;;;;1.40;1.20;;;7.50;99.90;;;;;;5019258;28;20473;-66
2023/01/13 05:52:52;;;;;;;1.27;1.17;;;7.50;99.90;;;;;;5019312;28;20517;-66
2023/01/13 05:55:19;;;;;;;5.00;1.10;;;7.50;99.90;;;;;;5019393;28;20463;-66
2023/01/13 05:57:45;;;;;;;5.17;1.27;;;7.50;99.90;;;;;;5024235;28;20458;-67
2023/01/13 06:00:15;;;;;;;4.80;1.30;;;7.50;99.90;;;;;;5012956;28;20482;-67
2023/01/13 06:02:41;;;;;;;1.30;1.20;;;7.40;99.90;;;;;;5014083;28;20459;-67
2023/01/13 06:05:08;;;;;;;1.70;1.20;;;7.40;99.90;;;;;;5016494;28;20454;-67
2023/01/13 06:07:35;;;;;;;5.53;1.37;;;7.40;99.90;;;;;;5024437;28;20865;-66
2023/01/13 06:10:02;;;;;;;2.03;1.47;;;7.40;99.90;;;;;;5014496;28;20505;-67
2023/01/13 06:12:28;;;;;;;3.73;1.60;;;7.40;99.90;;;;;;5020430;28;20462;-68
2023/01/13 06:14:55;;;;;;;4.10;1.40;;;7.40;99.90;;;;;;5023114;28;20901;-66
2023/01/13 06:17:23;;;;;;;1.57;1.23;;;7.40;99.90;;;;;;5021926;28;20490;-66
2023/01/13 06:19:50;;;;;;;3.80;1.30;;;7.40;99.90;;;;;;5021458;28;20458;-67
2023/01/13 06:22:19;;;;;;;1.63;1.13;;;7.30;99.90;;;;;;5015785;28;20450;-67
2023/01/13 06:24:45;;;;;;;3.20;1.40;;;7.30;99.90;;;;;;5022436;28;20506;-67
2023/01/13 06:27:14;;;;;;;4.40;1.60;;;7.30;99.90;;;;;;5013747;28;20454;-67
2023/01/13 06:29:41;;;;;;;4.43;1.93;;;7.30;99.90;;;;;;5019473;28;20469;-67
2023/01/13 06:32:12;;;;;;;9.40;1.50;;;7.30;99.90;;;;;;5019827;28;20492;-66
2023/01/13 06:34:44;;;;;;;2.90;1.57;;;7.20;99.90;;;;;;5024442;28;20462;-67
2023/01/13 06:37:13;;;;;;;2.73;1.60;;;7.20;99.90;;;;;;5024632;28;20490;-66
2023/01/13 06:39:41;;;;;;;6.23;1.50;;;7.30;99.90;;;;;;5013393;28;20501;-66
2023/01/13 06:44:52;;;;;;;4.73;1.50;;;7.30;99.90;;;;;;5021538;28;20469;-66
2023/01/13 06:47:21;;;;;;;2.70;1.30;;;7.30;99.90;;;;;;5020332;28;20455;-66
2023/01/13 06:49:49;;;;;;;3.40;1.43;;;7.30;99.90;;;;;;5013395;28;20820;-66
2023/01/13 06:52:15;;;;;;;3.47;1.60;;;7.30;99.90;;;;;;5020972;28;20454;-66
2023/01/13 06:54:42;;;;;;;2.60;1.30;;;7.30;99.90;;;;;;5021608;28;20501;-66
2023/01/13 06:57:09;;;;;;;10.63;1.50;;;7.40;99.90;;;;;;5019298;28;20485;-67
2023/01/13 06:59:35;;;;;;;5.20;1.20;;;7.30;99.90;;;;;;5013723;28;20455;-66
2023/01/13 07:02:02;;;;;;;4.80;1.20;;;7.30;99.90;;;;;;5015770;28;20474;-67
2023/01/13 07:04:29;;;;;;;2.10;1.50;;;7.30;99.90;;;;;;5020938;28;20467;-68
2023/01/13 07:06:57;;;;;;;1.17;1.07;;;7.30;99.90;;;;;;5013592;28;20455;-68
2023/01/13 07:09:24;;;;;;;2.87;1.47;;;7.30;99.90;;;;;;5013415;28;20451;-68
2023/01/13 07:11:51;;;;;;;1.80;1.30;;;7.20;99.90;;;;;;5016064;28;20473;-68
2023/01/13 07:17:02;;;;;;;7.30;1.70;;;7.20;99.90;;;;;;5013131;28;20505;-67
2023/01/13 07:19:29;;;;;;;3.10;1.50;;;7.20;99.90;;;;;;5019265;28;20462;-67
2023/01/13 07:21:57;;;;;;;1.40;1.30;;;7.20;99.90;;;;;;5019941;28;20475;-67
2023/01/13 07:24:23;;;;;;;3.10;1.30;;;7.20;99.90;;;;;;5019205;28;20455;-67
2023/01/13 07:26:51;;;;;;;3.10;1.73;;;7.20;99.90;;;;;;5015707;28;20455;-67
2023/01/13 07:29:17;;;;;;;7.90;1.80;;;7.20;99.90;;;;;;5019820;28;20938;-67
2023/01/13 07:31:44;;;;;;;1.43;1.33;;;7.20;99.90;;;;;;5020729;28;20905;-68
2023/01/13 07:34:11;;;;;;;8.07;2.00;;;7.20;99.90;;;;;;5015829;28;20463;-67
2023/01/13 07:36:38;;;;;;;1.60;1.30;;;7.30;99.90;;;;;;5019818;28;20490;-67
2023/01/13 07:39:06;;;;;;;5.03;1.80;;;7.30;99.90;;;;;;5012754;28;20459;-68
2023/01/13 07:44:17;;;;;;;5.00;1.50;;;7.40;99.90;;;;;;5027134;28;20490;-67
2023/01/13 07:46:43;;;;;;;4.43;1.80;;;7.40;99.90;;;;;;5028144;28;21225;-67
2023/01/13 07:49:10;;;;;;;3.43;1.40;;;7.50;99.90;;;;;;5028064;28;20442;-67
2023/01/13 07:51:38;;;;;;;5.37;1.90;;;7.40;99.90;;;;;;5027332;28;21004;-67
2023/01/13 07:54:06;;;;;;;14.97;2.30;;;7.50;99.90;;;;;;5028878;28;20446;-67
2023/01/13 07:56:33;;;;;;;4.43;1.67;;;7.40;99.90;;;;;;5028477;28;20835;-67
2023/01/13 07:59:00;;;;;;;3.53;1.67;;;7.40;99.90;;;;;;5027853;28;21511;-67
2023/01/13 08:01:27;;;;;;;5.07;1.77;;;7.40;99.90;;;;;;5025482;28;20524;-67
2023/01/13 08:03:54;;;;;;;5.53;1.77;;;7.40;99.90;;;;;;5028473;28;20457;-66
2023/01/13 08:06:21;;;;;;;5.33;2.07;;;7.40;99.90;;;;;;5027418;28;20819;-67
2023/01/13 08:08:48;;;;;;;6.37;1.50;;;7.50;99.90;;;;;;5028125;28;20497;-66
2023/01/13 08:11:16;;;;;;;2.70;1.60;;;7.50;99.90;;;;;;5028027;28;20908;-67
2023/01/13 08:13:43;;;;;;;6.47;1.80;;;7.50;99.90;;;;;;5027185;28;20453;-68
2023/01/13 08:16:12;;;;;;;6.80;1.50;;;7.50;99.90;;;;;;5027766;28;20602;-67
2023/01/13 08:18:39;;;;;;;8.20;3.67;;;7.50;99.90;;;;;;5028108;28;20470;-68
2023/01/13 08:21:07;;;;;;;2.60;1.57;;;7.50;99.90;;;;;;5027825;28;20909;-68
2023/01/13 08:23:34;;;;;;;4.17;1.60;;;7.60;99.90;;;;;;5027452;28;20925;-67
2023/01/13 08:26:02;;;;;;;5.03;1.73;;;7.60;99.90;;;;;;5027967;28;20450;-68
2023/01/13 08:28:30;;;;;;;3.87;1.50;;;8.10;99.90;;;;;;5026926;28;20540;-67
2023/01/13 08:30:59;;;;;;;2.67;1.53;;;8.90;99.90;;;;;;5027195;28;20497;-68
2023/01/13 08:33:26;;;;;;;2.70;1.70;;;9.70;99.90;;;;;;5026729;28;20457;-69
2023/01/13 08:35:53;;;;;;;4.70;1.50;;;10.40;99.90;;;;;;5026674;28;20457;-69
2023/01/13 08:38:20;;;;;;;2.70;1.50;;;10.40;99.90;;;;;;5027475;28;20458;-68
2023/01/13 08:40:46;;;;;;;3.27;1.33;;;10.30;99.90;;;;;;5027621;28;20877;-68
2023/01/13 08:43:13;;;;;;;5.83;1.90;;;10.10;99.90;;;;;;5027555;28;20500;-68
2023/01/13 08:45:41;;;;;;;1.73;1.50;;;9.80;99.90;;;;;;5026899;28;21073;-68
2023/01/13 08:48:08;;;;;;;3.10;1.47;;;9.70;99.90;;;;;;5027092;28;20515;-68
2023/01/13 08:50:35;;;;;;;2.53;1.57;;;9.50;99.90;;;;;;5027482;28;20499;-69
2023/01/13 08:53:02;;;;;;;2.70;1.40;;;9.40;99.90;;;;;;5026350;28;20530;-69
2023/01/13 08:55:28;;;;;;;9.17;1.80;;;9.30;99.90;;;;;;5027160;28;20864;-69
2023/01/13 08:57:55;;;;;;;2.80;1.50;;;9.30;99.90;;;;;;5026227;28;20449;-69
2023/01/13 09:00:22;;;;;;;6.43;1.67;;;9.30;99.90;;;;;;5025833;28;20231;-69
2023/01/13 09:02:50;;;;;;;3.67;1.40;;;9.40;99.90;;;;;;5027084;28;20508;-69
2023/01/13 09:05:16;;;;;;;9.23;1.97;;;9.40;99.90;;;;;;5026412;28;20872;-69
2023/01/13 09:07:43;;;;;;;2.47;1.53;;;9.30;99.90;;;;;;5027118;28;20453;-69
2023/01/13 09:10:11;;;;;;;2.50;1.67;;;9.30;99.90;;;;;;5026912;28;21192;-69
2023/01/13 09:15:21;;;;;;;1.70;1.40;;;9.50;99.90;;;;;;5026930;28;20436;-69
2023/01/13 09:17:49;;;;;;;2.93;1.37;;;9.40;99.90;;;;;;5027042;28;20486;-69
2023/01/13 09:20:16;;;;;;;6.87;1.50;;;9.50;99.90;;;;;;5026776;28;20485;-69
2023/01/13 09:22:43;;;;;;;2.77;1.33;;;9.50;99.90;;;;;;5025719;28;21007;-69
2023/01/13 09:25:11;;;;;;;7.70;1.57;;;9.50;99.90;;;;;;5026593;28;20450;-69
2023/01/13 09:27:38;;;;;;;3.23;1.60;;;9.50;99.90;;;;;;5026414;28;21762;-69
2023/01/13 09:30:05;;;;;;;5.83;1.50;;;9.60;99.90;;;;;;5026637;28;20453;-69
2023/01/13 09:32:32;;;;;;;2.60;1.50;;;9.80;99.90;;;;;;5026956;28;20603;-69
2023/01/13 09:34:59;;;;;;;4.20;1.73;;;9.90;99.90;;;;;;5027120;28;20446;-69
2023/01/13 09:37:26;;;;;;;2.43;1.60;;;9.90;99.90;;;;;;5025651;28;20910;-69
2023/01/13 09:39:53;;;;;;;1.40;1.30;;;10.10;99.90;;;;;;5026857;28;20887;-70
2023/01/13 09:45:15;;;;;;;7.83;1.90;;;10.40;99.90;;;;;;5030787;28;20452;-70
2023/01/13 09:47:50;;;;;;;7.63;1.97;;;10.70;99.90;;;;;;5030238;28;20942;-70
2023/01/13 09:50:32;;;;;;;5.27;1.67;;;11.00;99.90;;;;;;5029966;28;20469;-70
2023/01/13 09:52:59;;;;;;;4.87;1.90;;;11.00;99.90;;;;;;5030170;28;20497;-68
2023/01/13 09:55:32;;;;;;;6.50;1.70;;;10.80;99.90;;;;;;5030376;28;20477;-69
2023/01/13 09:58:00;;;;;;;3.30;2.10;;;10.60;99.90;;;;;;5030119;28;20858;-69
2023/01/13 10:00:34;;;;;;;2.87;1.77;;;10.40;99.90;;;;;;5029467;28;20485;-69
2023/01/13 10:03:17;;;;;;;7.20;2.00;;;10.00;99.90;;;;;;5030548;28;20461;-69
2023/01/13 10:05:55;;;;;;;6.30;1.90;;;9.60;99.90;;;;;;5030625;28;20574;-68
2023/01/13 10:08:25;;;;;;;5.40;1.40;;;9.30;99.90;;;;;;5029866;28;20453;-69
2023/01/13 10:10:57;;;;;;;6.00;2.17;;;9.20;99.90;;;;;;5028386;28;22154;-68
2023/01/13 10:13:25;;;;;;;3.30;2.00;;;9.20;99.90;;;;;;5028085;28;20512;-68
2023/01/13 10:16:14;;;;;;;8.17;2.27;;;9.10;99.90;;;;;;5029342;28;20442;-69
2023/01/13 10:18:58;;;;;;;4.43;1.47;;;9.00;99.90;;;;;;5030003;28;20551;-69
2023/01/13 10:21:45;;;;;;;6.67;2.20;;;9.00;99.90;;;;;;5029262;28;20465;-68
2023/01/13 10:24:19;;;;;;;2.97;1.60;;;9.00;99.90;;;;;;5029975;28;20514;-68
2023/01/13 10:26:56;;;;;;;14.53;2.60;;;9.10;99.90;;;;;;5029979;28;21008;-68
2023/01/13 10:29:25;;;;;;;4.03;1.70;;;9.30;99.90;;;;;;5029249;28;20450;-68
2023/01/13 10:31:52;;;;;;;5.10;2.03;;;9.60;99.90;;;;;;5028688;28;20560;-68
2023/01/13 10:34:20;;;;;;;3.00;1.60;;;9.80;99.90;;;;;;5029211;28;20462;-68
2023/01/13 10:37:00;;;;;;;7.33;2.10;;;9.90;99.90;;;;;;5029479;28;20465;-68
2023/01/13 10:39:27;;;;;;;6.90;2.07;;;9.70;99.90;;;;;;5029986;28;20446;-68
2023/01/13 10:42:05;;;;;;;7.40;1.93;;;9.50;99.90;;;;;;5029727;28;20477;-68
2023/01/13 10:44:32;;;;;;;4.80;1.80;;;9.40;99.90;;;;;;5029500;28;20954;-68
2023/01/13 10:46:59;;;;;;;7.20;1.93;;;9.30;99.90;;;;;;5027698;28;20946;-69
2023/01/13 10:49:31;;;;;;;8.07;2.90;;;9.20;99.90;;;;;;5029225;28;20454;-69
2023/01/13 10:52:00;;;;;;;4.90;1.97;;;9.20;99.90;;;;;;5029606;28;20484;-70
2023/01/13 10:54:27;;;;;;;11.03;3.17;;;9.10;99.90;;;;;;5028784;28;20457;-70
2023/01/13 10:57:15;;;;;;;9.87;2.00;;;9.00;99.90;;;;;;5029642;28;20464;-68
2023/01/13 10:59:42;;;;;;;6.57;2.83;;;9.00;99.90;;;;;;5029679;28;20450;-70
2023/01/13 11:02:22;;;;;;;7.50;2.03;;;9.00;99.90;;;;;;5029627;28;20468;-70
2023/01/13 11:05:12;;;;;;;6.63;1.90;;;9.10;99.90;;;;;;5028786;28;20535;-69
2023/01/13 11:07:45;;;;;;;3.30;1.83;;;9.20;99.90;;;;;;5027053;28;20595;-69
2023/01/13 11:10:19;;;;;;;6.23;2.23;;;9.40;99.90;;;;;;5028369;28;20504;-69
2023/01/13 11:13:02;;;;;;;7.23;2.30;;;9.50;99.90;;;;;;5028774;28;20458;-70
2023/01/13 11:15:39;;;;;;;6.20;2.03;;;9.70;99.90;;;;;;5027751;28;20462;-69
2023/01/13 11:18:15;;;;;;;7.23;2.23;;;10.00;99.90;;;;;;5029059;28;20486;-69
2023/01/13 11:20:43;;;;;;;5.50;2.30;;;10.00;99.90;;;;;;5028150;28;20544;-69
2023/01/13 11:23:17;;;;;;;8.03;2.50;;;9.80;99.90;;;;;;5026746;28;21021;-69
2023/01/13 11:25:49;;;;;;;6.57;2.20;;;9.60;99.90;;;;;;5028418;28;20457;-68
2023/01/13 11:28:31;;;;;;;6.07;1.97;;;9.60;99.90;;;;;;5028631;28;20450;-70
2023/01/13 11:31:04;;;;;;;8.73;2.30;;;9.80;99.90;;;;;;5027735;28;20523;-68
2023/01/13 11:33:39;;;;;;;8.63;2.20;;;10.10;99.90;;;;;;5027040;28;20454;-69
2023/01/13 11:36:11;;;;;;;5.70;2.27;;;10.40;99.90;;;;;;5028301;28;20456;-69
2023/01/13 11:38:46;;;;;;;5.27;1.50;;;10.70;99.90;;;;;;5027827;28;20494;-69
2023/01/13 11:41:22;;;;;;;5.83;2.30;;;11.00;99.90;;;;;;5028796;28;20473;-69
2023/01/13 11:43:54;;;;;;;12.20;2.63;;;11.30;99.90;;;;;;5028333;28;20958;-69
2023/01/13 11:46:25;;;;;;;8.30;2.00;;;11.40;99.90;;;;;;5028323;28;20443;-69
2023/01/13 11:48:55;;;;;;;9.93;1.97;;;11.60;99.90;;;;;;5028107;28;20830;-69
2023/01/13 11:51:29;;;;;;;5.43;2.10;;;11.60;99.90;;;;;;5028156;28;20919;-69
2023/01/13 11:54:17;;;;;;;7.03;2.30;;;11.60;99.90;;;;;;5028234;28;20466;-69
2023/01/13 11:57:03;;;;;;;8.10;2.30;;;11.30;99.90;;;;;;5028254;28;20449;-69
2023/01/13 11:59:57;;;;;;;5.53;2.20;;;11.30;99.90;;;;;;5028424;28;20449;-68
2023/01/13 12:02:38;;;;;;;10.90;2.07;;;10.90;99.90;;;;;;5028037;28;20466;-69
2023/01/13 12:05:14;;;;;;;9.07;2.30;;;10.80;99.90;;;;;;5023886;28;21895;-70
2023/01/13 12:07:49;;;;;;;11.17;1.97;;;10.60;99.90;;;;;;5024838;28;20458;-70
2023/01/13 12:10:32;;;;;;;11.07;2.10;;;10.40;99.90;;;;;;5025160;28;21233;-69
2023/01/13 12:13:09;;;;;;;8.10;2.10;;;10.60;99.90;;;;;;5024384;28;21285;-70
2023/01/13 12:16:00;;;;;;;9.50;3.17;;;10.70;99.90;;;;;;5024767;28;20453;-70
2023/01/13 12:18:59;;;;;;;8.83;2.50;;;10.50;99.90;;;;;;5023964;28;20489;-69
2023/01/13 12:21:30;;;;;;;6.90;2.97;;;10.20;99.90;;;;;;5023303;28;20877;-69
2023/01/13 12:24:12;;;;;;;12.00;2.20;;;10.00;99.90;;;;;;5024774;28;20500;-70
2023/01/13 12:26:44;;;;;;;11.53;2.40;;;9.80;99.90;;;;;;5023695;28;20464;-70
2023/01/13 12:29:14;;;;;;;7.67;2.00;;;9.70;99.90;;;;;;5024275;28;20485;-70
2023/01/13 12:31:42;;;;;;;11.40;2.20;;;9.60;99.90;;;;;;5023724;28;20614;-70
2023/01/13 12:34:24;;;;;;;11.53;2.60;;;9.60;99.90;;;;;;5024370;28;20507;-70
2023/01/13 12:36:59;;;;;;;5.03;1.90;;;9.70;99.90;;;;;;5024589;28;20473;-69
2023/01/13 12:39:36;;;;;;;8.17;2.20;;;9.70;99.90;;;;;;5024452;28;20563;-69
2023/01/13 12:45:20;;;;;;;6.60;2.77;;;10.20;99.90;;;;;;5024883;28;20433;-68
2023/01/13 12:47:47;;;;;;;3.57;1.87;;;10.20;99.90;;;;;;5023863;28;20453;-69
2023/01/13 12:50:39;;;;;;;12.30;2.70;;;10.20;99.90;;;;;;5023966;28;20604;-68
2023/01/13 12:53:31;;;;;;;11.57;3.17;;;10.20;99.90;;;;;;5023388;28;20454;-68
2023/01/13 12:56:22;;;;;;;9.50;2.57;;;9.90;99.90;;;;;;5023245;28;21029;-68
2023/01/13 12:58:50;;;;;;;10.30;3.13;;;9.80;99.90;;;;;;5024897;28;20494;-68
2023/01/13 13:01:17;;;;;;;10.23;2.30;;;9.60;99.90;;;;;;5024355;28;20515;-68
2023/01/13 13:04:08;;;;;;;11.90;2.90;;;9.60;99.90;;;;;;5024647;28;20454;-68
2023/01/13 13:06:37;;;;;;;8.43;2.50;;;9.50;99.90;;;;;;5023856;28;20458;-68
2023/01/13 13:09:06;;;;;;;7.93;2.67;;;9.70;99.90;;;;;;5024500;28;20520;-68
2023/01/13 13:15:03;;;;;;;9.30;2.20;;;10.30;99.90;;;;;;5024047;28;20441;-68
2023/01/13 13:17:41;;;;;;;10.63;2.43;;;10.30;99.90;;;;;;5024191;28;20445;-67
2023/01/13 13:20:49;;;;;;;13.20;2.60;;;10.00;99.90;;;;;;5027927;28;21974;-69
2023/01/13 13:23:36;;;;;;;4.70;1.93;;;9.90;99.90;;;;;;5028171;28;20481;-69
2023/01/13 13:26:10;;;;;;;7.30;2.03;;;9.90;99.90;;;;;;5028335;28;20449;-69
2023/01/13 13:28:41;;;;;;;11.33;2.33;;;9.90;99.90;;;;;;5029363;28;20471;-69
2023/01/13 13:31:26;;;;;;;8.37;2.40;;;9.80;99.90;;;;;;5027778;28;21063;-69
2023/01/13 13:34:13;;;;;;;5.97;2.23;;;9.70;99.90;;;;;;5027463;28;20863;-70
2023/01/13 13:37:23;;;;;;;10.50;2.80;;;9.60;99.90;;;;;;5028071;28;20498;-70
2023/01/13 13:48:24;;;;;;;7.40;2.20;;;8.60;99.90;;;;;;5025858;28;20448;-69
2023/01/13 13:50:56;;;;;;;4.40;1.67;;;8.80;99.90;;;;;;5028093;28;20469;-68
2023/01/13 13:53:26;;;;;;;7.80;1.80;;;8.90;99.90;;;;;;5029238;28;20537;-68
2023/01/13 13:55:57;;;;;;;12.13;2.40;;;8.90;99.90;;;;;;5026673;28;20992;-68
2023/01/13 13:58:25;;;;;;;4.90;2.10;;;8.90;99.90;;;;;;5025658;28;20492;-68
2023/01/13 14:00:53;;;;;;;5.10;1.80;;;8.90;99.90;;;;;;5026990;28;20474;-69
2023/01/13 14:03:25;;;;;;;3.00;1.67;;;9.00;99.90;;;;;;5027847;28;20829;-68
2023/01/13 14:05:57;;;;;;;7.60;1.90;;;9.00;99.90;;;;;;5027943;28;20496;-66
2023/01/13 14:08:25;;;;;;;6.50;1.80;;;9.10;99.90;;;;;;5027797;28;20450;-68
2023/01/13 14:10:52;;;;;;;5.10;1.70;;;9.10;99.90;;;;;;5025699;28;20523;-68
2023/01/13 14:13:22;;;;;;;7.17;2.13;;;9.00;99.90;;;;;;5026120;28;20881;-66